CheckWX is a tool to help pilots better visualize weather data.  It is not intended as a substitute for an official pre-flight weather briefing.

04:26:10 UTC

KMBS METAR
Mbs International Airport
Saginaw, Michigan, USA
Current

33 mins ago

KMBS 290353Z AUTO 29013G23KT 10SM FEW029 BKN055 OVC075 M05/M12 A2995 RMK AO2 SLP153 T10501122
Observed
Feb-29 @ 03:53 UTC
Wind
  • 290° at 13 KTS
  • Gusting to 23 KTS
Visibility
10 SM
Flight Rules
VFR
Cloud Levels
  • Few at 2,900' AGL
  • Broken at 5,500' AGL
  • Overcast at 7,500' AGL
Temperature
-5°C / 23°F
Dewpoint
-12°C / 10°F
Humidity
58%
Altimeter
29.95" Hg
Pressure
1014.22 hPa
Previous

2 hours ago

KMBS 290253Z 28013G19KT 10SM FEW030 M06/M12 A2995 RMK AO2 SNB08E25 SLP151 P0000 60000 T10561117 51012
Observed
Feb-29 @ 02:53 UTC
Wind
  • 280° at 13 KTS
  • Gusting to 19 KTS
Visibility
10 SM
Flight Rules
VFR
Cloud Levels
  • Few at 3,000' AGL
Temperature
-6°C / 21°F
Dewpoint
-12°C / 10°F
Humidity
63%
Altimeter
29.95" Hg
Pressure
1014.22 hPa
Current Rain
0.01"
Previous

3 hours ago

KMBS 290153Z 29013KT 10SM BKN060 OVC075 M05/M12 A2993 RMK AO2 PK WND 28026/0139 SNE11 SLP147 P0000 T10501117
Observed
Feb-29 @ 01:53 UTC
Wind
  • 290° at 13 KTS
Visibility
10 SM
Flight Rules
VFR
Cloud Levels
  • Broken at 6,000' AGL
  • Overcast at 7,500' AGL
Temperature
-5°C / 23°F
Dewpoint
-12°C / 10°F
Humidity
58%
Altimeter
29.93" Hg
Pressure
1013.52 hPa
Current Rain
0.01"